sensor_id;sensor_type;location;lat;lon;timestamp;P1;durP1;ratioP1;P2;durP2;ratioP2
26177;SDS011;13924;47.670;10.310;2023-06-10T00:00:41;6.8;;;6.3;;
26177;SDS011;13924;47.670;10.310;2023-06-10T00:15:43;7.1;;;6.5;;
26177;SDS011;13924;47.670;10.310;2023-06-10T00:30:42;8.2;;;7.4;;
26177;SDS011;13924;47.670;10.310;2023-06-10T00:45:42;10.5;;;7.6;;
26177;SDS011;13924;47.670;10.310;2023-06-10T01:00:45;7.1;;;6.4;;
26177;SDS011;13924;47.670;10.310;2023-06-10T01:01:26;7.6;;;6.8;;
26177;SDS011;13924;47.670;10.310;2023-06-10T01:15:46;8.3;;;7.6;;
26177;SDS011;13924;47.670;10.310;2023-06-10T01:30:46;9.0;;;8.2;;
26177;SDS011;13924;47.670;10.310;2023-06-10T01:45:47;9.9;;;9.1;;
26177;SDS011;13924;47.670;10.310;2023-06-10T02:00:46;10.2;;;8.0;;
26177;SDS011;13924;47.670;10.310;2023-06-10T02:15:52;8.2;;;7.5;;
26177;SDS011;13924;47.670;10.310;2023-06-10T02:30:47;8.9;;;8.1;;
26177;SDS011;13924;47.670;10.310;2023-06-10T02:45:48;8.5;;;7.8;;
26177;SDS011;13924;47.670;10.310;2023-06-10T03:00:50;9.1;;;8.3;;
26177;SDS011;13924;47.670;10.310;2023-06-10T03:12:30;10.9;;;9.9;;
26177;SDS011;13924;47.670;10.310;2023-06-10T03:27:32;9.2;;;8.3;;
26177;SDS011;13924;47.670;10.310;2023-06-10T03:42:31;9.5;;;8.6;;
26177;SDS011;13924;47.670;10.310;2023-06-10T03:57:32;9.0;;;8.0;;
26177;SDS011;13924;47.670;10.310;2023-06-10T04:12:33;9.5;;;8.5;;
26177;SDS011;13924;47.670;10.310;2023-06-10T04:27:33;9.0;;;8.2;;
26177;SDS011;13924;47.670;10.310;2023-06-10T04:42:35;9.3;;;8.5;;
26177;SDS011;13924;47.670;10.310;2023-06-10T04:57:35;9.3;;;8.4;;
26177;SDS011;13924;47.670;10.310;2023-06-10T05:12:35;11.1;;;9.8;;
26177;SDS011;13924;47.670;10.310;2023-06-10T05:27:36;11.4;;;10.3;;
26177;SDS011;13924;47.670;10.310;2023-06-10T05:42:36;11.4;;;10.2;;
26177;SDS011;13924;47.670;10.310;2023-06-10T05:57:37;10.8;;;9.4;;
26177;SDS011;13924;47.670;10.310;2023-06-10T06:12:40;10.9;;;9.4;;
26177;SDS011;13924;47.670;10.310;2023-06-10T06:27:38;10.0;;;9.1;;
26177;SDS011;13924;47.670;10.310;2023-06-10T06:42:42;10.9;;;9.9;;
26177;SDS011;13924;47.670;10.310;2023-06-10T06:57:41;9.5;;;8.6;;
26177;SDS011;13924;47.670;10.310;2023-06-10T07:12:40;9.6;;;8.8;;
26177;SDS011;13924;47.670;10.310;2023-06-10T07:54:26;10.8;;;9.7;;
26177;SDS011;13924;47.670;10.310;2023-06-10T07:57:42;9.3;;;8.4;;
26177;SDS011;13924;47.670;10.310;2023-06-10T08:12:43;8.5;;;7.8;;
26177;SDS011;13924;47.670;10.310;2023-06-10T08:27:46;9.4;;;8.5;;
26177;SDS011;13924;47.670;10.310;2023-06-10T08:42:45;9.6;;;8.7;;
26177;SDS011;13924;47.670;10.310;2023-06-10T08:57:44;10.3;;;9.3;;
26177;SDS011;13924;47.670;10.310;2023-06-10T09:12:46;10.9;;;9.9;;
26177;SDS011;13924;47.670;10.310;2023-06-10T09:27:46;12.2;;;11.1;;
26177;SDS011;13924;47.670;10.310;2023-06-10T09:42:46;11.3;;;10.3;;
26177;SDS011;13924;47.670;10.310;2023-06-10T09:57:49;10.4;;;9.4;;
26177;SDS011;13924;47.670;10.310;2023-06-10T10:12:48;8.6;;;7.8;;
26177;SDS011;13924;47.670;10.310;2023-06-10T10:27:52;8.8;;;8.0;;
26177;SDS011;13924;47.670;10.310;2023-06-10T10:42:49;7.5;;;7.0;;
26177;SDS011;13924;47.670;10.310;2023-06-10T10:57:53;7.9;;;7.1;;
26177;SDS011;13924;47.670;10.310;2023-06-10T11:12:51;7.1;;;6.5;;
26177;SDS011;13924;47.670;10.310;2023-06-10T11:27:51;6.6;;;6.0;;
26177;SDS011;13924;47.670;10.310;2023-06-10T11:42:51;6.5;;;5.9;;
26177;SDS011;13924;47.670;10.310;2023-06-10T11:57:52;6.3;;;5.8;;
26177;SDS011;13924;47.670;10.310;2023-06-10T12:12:58;6.2;;;5.6;;
26177;SDS011;13924;47.670;10.310;2023-06-10T12:27:55;5.6;;;5.1;;
26177;SDS011;13924;47.670;10.310;2023-06-10T12:42:57;5.9;;;4.9;;
26177;SDS011;13924;47.670;10.310;2023-06-10T12:57:58;5.6;;;4.9;;
26177;SDS011;13924;47.670;10.310;2023-06-10T13:12:55;5.4;;;5.0;;
26177;SDS011;13924;47.670;10.310;2023-06-10T13:27:56;5.2;;;4.8;;
26177;SDS011;13924;47.670;10.310;2023-06-10T13:42:56;4.1;;;3.8;;
26177;SDS011;13924;47.670;10.310;2023-06-10T13:57:57;4.0;;;3.7;;
26177;SDS011;13924;47.670;10.310;2023-06-10T14:12:57;3.6;;;3.3;;
26177;SDS011;13924;47.670;10.310;2023-06-10T14:27:58;3.9;;;3.5;;
26177;SDS011;13924;47.670;10.310;2023-06-10T14:42:59;4.0;;;3.5;;
26177;SDS011;13924;47.670;10.310;2023-06-10T14:57:59;3.4;;;3.2;;
26177;SDS011;13924;47.670;10.310;2023-06-10T15:13:01;3.2;;;3.0;;
26177;SDS011;13924;47.670;10.310;2023-06-10T15:28:00;2.9;;;2.7;;
26177;SDS011;13924;47.670;10.310;2023-06-10T15:43:01;3.4;;;3.1;;
26177;SDS011;13924;47.670;10.310;2023-06-10T15:58:02;3.6;;;3.3;;
26177;SDS011;13924;47.670;10.310;2023-06-10T16:13:04;3.3;;;2.9;;
26177;SDS011;13924;47.670;10.310;2023-06-10T16:28:04;3.8;;;3.5;;
26177;SDS011;13924;47.670;10.310;2023-06-10T16:43:05;3.9;;;3.6;;
26177;SDS011;13924;47.670;10.310;2023-06-10T16:58:05;3.6;;;3.3;;
26177;SDS011;13924;47.670;10.310;2023-06-10T17:13:06;19.1;;;17.1;;
26177;SDS011;13924;47.670;10.310;2023-06-10T17:28:06;5.1;;;4.7;;
26177;SDS011;13924;47.670;10.310;2023-06-10T17:43:07;6.8;;;6.2;;
26177;SDS011;13924;47.670;10.310;2023-06-10T17:58:09;5.4;;;4.9;;
26177;SDS011;13924;47.670;10.310;2023-06-10T18:13:08;6.1;;;5.5;;
26177;SDS011;13924;47.670;10.310;2023-06-10T18:28:10;10.9;;;5.2;;
26177;SDS011;13924;47.670;10.310;2023-06-10T18:43:11;6.6;;;4.8;;
26177;SDS011;13924;47.670;10.310;2023-06-10T18:58:10;5.6;;;4.3;;
26177;SDS011;13924;47.670;10.310;2023-06-10T19:13:45;5.0;;;4.6;;
26177;SDS011;13924;47.670;10.310;2023-06-10T19:28:17;6.0;;;4.7;;
26177;SDS011;13924;47.670;10.310;2023-06-10T19:43:12;5.7;;;5.0;;
26177;SDS011;13924;47.670;10.310;2023-06-10T19:58:13;5.4;;;4.9;;
26177;SDS011;13924;47.670;10.310;2023-06-10T20:13:14;5.7;;;5.3;;
26177;SDS011;13924;47.670;10.310;2023-06-10T20:28:15;6.5;;;6.0;;
26177;SDS011;13924;47.670;10.310;2023-06-10T20:43:16;6.6;;;6.1;;
26177;SDS011;13924;47.670;10.310;2023-06-10T20:58:16;6.8;;;6.2;;
26177;SDS011;13924;47.670;10.310;2023-06-10T21:13:16;6.4;;;5.7;;
26177;SDS011;13924;47.670;10.310;2023-06-10T21:28:28;7.0;;;6.4;;
26177;SDS011;13924;47.670;10.310;2023-06-10T21:43:30;6.5;;;5.9;;
26177;SDS011;13924;47.670;10.310;2023-06-10T21:58:20;7.2;;;6.6;;
26177;SDS011;13924;47.670;10.310;2023-06-10T22:00:40;7.4;;;6.8;;
26177;SDS011;13924;47.670;10.310;2023-06-10T22:15:48;7.8;;;6.9;;
26177;SDS011;13924;47.670;10.310;2023-06-10T22:30:38;7.1;;;6.5;;
26177;SDS011;13924;47.670;10.310;2023-06-10T22:45:38;7.4;;;6.8;;
26177;SDS011;13924;47.670;10.310;2023-06-10T23:00:39;7.7;;;7.0;;
26177;SDS011;13924;47.670;10.310;2023-06-10T23:15:39;8.4;;;7.7;;
26177;SDS011;13924;47.670;10.310;2023-06-10T23:30:38;8.5;;;7.7;;
26177;SDS011;13924;47.670;10.310;2023-06-10T23:45:39;8.1;;;7.4;;
